Time;durP1;ratioP1;P1;durP2;ratioP2;P2;SDS_P1;SDS_P2;PMS_P1;PMS_P2;Temp;Humidity;BMP_temperature;BMP_pressure;BME280_temperature;BME280_humidity;BME280_pressure;Samples;Min_cycle;Max_cycle;Signal;HPM_P1;HPM_P2
2022/10/22 00:01:23;;;;;;;6.35;2.55;;;14.80;99.90;;;;;;5075353;28;20115;-71
2022/10/22 00:03:49;;;;;;;5.82;2.85;;;14.70;99.90;;;;;;5093324;28;20124;-70
2022/10/22 00:06:16;;;;;;;6.43;3.30;;;14.80;99.90;;;;;;5093299;28;20032;-71
2022/10/22 00:08:41;;;;;;;4.72;2.60;;;14.80;99.90;;;;;;5093117;28;20036;-70
2022/10/22 00:11:16;;;;;;;8.52;2.95;;;14.80;99.90;;;;;;5093195;28;20032;-71
2022/10/22 00:13:42;;;;;;;7.30;2.65;;;14.70;99.90;;;;;;5092959;28;20032;-70
2022/10/22 00:16:09;;;;;;;6.25;2.50;;;14.70;99.90;;;;;;5074988;28;20050;-71
2022/10/22 00:18:35;;;;;;;7.00;2.75;;;14.70;99.90;;;;;;5092887;28;20058;-71
2022/10/22 00:21:01;;;;;;;5.97;2.50;;;14.70;99.90;;;;;;5074976;28;20546;-71
2022/10/22 00:23:28;;;;;;;6.05;2.67;;;14.70;99.90;;;;;;5092925;28;20054;-70
2022/10/22 00:25:53;;;;;;;7.22;2.63;;;14.70;99.90;;;;;;5092808;28;20024;-70
2022/10/22 00:28:19;;;;;;;6.80;2.70;;;14.70;99.90;;;;;;5092947;28;20116;-70
2022/10/22 00:30:45;;;;;;;9.40;3.17;;;14.60;99.90;;;;;;5092783;28;20039;-70
2022/10/22 00:33:11;;;;;;;8.20;2.85;;;14.70;99.90;;;;;;5092694;28;20044;-71
2022/10/22 00:35:37;;;;;;;6.57;2.60;;;14.60;99.90;;;;;;5092865;28;20587;-70
2022/10/22 00:38:04;;;;;;;9.70;3.40;;;14.60;99.90;;;;;;5074750;28;20032;-70
2022/10/22 00:40:30;;;;;;;8.32;3.20;;;14.60;99.90;;;;;;5092554;28;20028;-70
2022/10/22 00:42:56;;;;;;;10.38;3.42;;;14.60;99.90;;;;;;5057955;28;20036;-70
2022/10/22 00:45:27;;;;;;;5.50;3.13;;;14.60;99.90;;;;;;5093101;28;20028;-70
2022/10/22 00:48:09;;;;;;;5.90;3.28;;;14.60;99.90;;;;;;5092296;28;20032;-70
2022/10/22 00:50:55;;;;;;;6.97;3.00;;;14.60;99.90;;;;;;5092325;28;20493;-70
2022/10/22 00:53:35;;;;;;;8.32;3.50;;;14.60;99.90;;;;;;5092435;28;20042;-69
2022/10/22 00:56:01;;;;;;;6.53;3.00;;;14.60;99.90;;;;;;5073614;28;20066;-69
2022/10/22 00:58:30;;;;;;;5.32;2.92;;;14.60;99.90;;;;;;5092485;28;20024;-70
2022/10/22 01:00:56;;;;;;;11.60;3.92;;;14.60;99.90;;;;;;5092267;28;20101;-71
2022/10/22 01:03:22;;;;;;;8.18;3.10;;;14.60;99.90;;;;;;5092248;28;20472;-70
2022/10/22 01:06:00;;;;;;;5.63;2.65;;;14.60;99.90;;;;;;5091445;28;20539;-72
2022/10/22 01:08:50;;;;;;;5.32;2.60;;;14.60;99.90;;;;;;5092078;28;20030;-72
2022/10/22 01:11:42;;;;;;;6.18;2.72;;;14.60;99.90;;;;;;5091295;28;20479;-70
2022/10/22 01:14:34;;;;;;;12.75;3.42;;;14.60;99.90;;;;;;5091847;28;20035;-72
2022/10/22 01:17:12;;;;;;;8.43;3.00;;;14.60;99.90;;;;;;5060013;28;20084;-71
2022/10/22 01:19:50;;;;;;;8.88;3.25;;;14.60;99.90;;;;;;5205636;22;20049;-66
2022/10/22 01:22:22;;;;;;;10.45;3.20;;;14.60;99.90;;;;;;5071623;28;20448;-70
2022/10/22 01:25:08;;;;;;;6.90;3.13;;;14.60;99.90;;;;;;5070832;28;20492;-70
2022/10/22 01:27:37;;;;;;;7.07;3.55;;;14.60;99.90;;;;;;5071386;28;20037;-68
2022/10/22 01:30:06;;;;;;;8.10;3.10;;;14.60;99.90;;;;;;5071619;28;20111;-65
2022/10/22 01:32:45;;;;;;;6.45;2.85;;;14.70;99.90;;;;;;5069068;28;20103;-66
2022/10/22 01:35:14;;;;;;;6.20;2.92;;;14.60;99.90;;;;;;5070043;28;20044;-65
2022/10/22 01:37:48;;;;;;;11.55;3.33;;;14.70;99.90;;;;;;5070078;28;20115;-65
2022/10/22 01:40:15;;;;;;;10.85;3.20;;;14.60;99.90;;;;;;5070287;28;20396;-65
2022/10/22 01:42:41;;;;;;;8.77;3.45;;;14.60;99.90;;;;;;5070318;28;20084;-65
2022/10/22 01:45:16;;;;;;;7.35;3.15;;;14.60;99.90;;;;;;5070538;28;20035;-65
2022/10/22 01:48:14;;;;;;;7.38;3.10;;;14.50;99.90;;;;;;5071283;28;20506;-65
2022/10/22 01:50:57;;;;;;;9.05;3.25;;;14.60;99.90;;;;;;5071124;28;20435;-65
2022/10/22 01:53:49;;;;;;;8.32;3.30;;;14.60;99.90;;;;;;5071183;28;20123;-66
2022/10/22 01:56:28;;;;;;;6.95;3.13;;;14.60;99.90;;;;;;5069987;28;20043;-66
2022/10/22 01:59:06;;;;;;;9.70;3.35;;;14.60;99.90;;;;;;5071058;28;20089;-66
2022/10/22 02:01:39;;;;;;;9.48;3.33;;;14.60;99.90;;;;;;5071162;28;20031;-65
2022/10/22 02:04:16;;;;;;;12.88;4.35;;;14.60;99.90;;;;;;5071388;28;20036;-65
2022/10/22 02:06:45;;;;;;;7.90;3.33;;;14.60;99.90;;;;;;5070780;28;20400;-66
2022/10/22 02:09:14;;;;;;;8.45;3.70;;;14.60;99.90;;;;;;5070618;28;20036;-65
2022/10/22 02:11:41;;;;;;;8.50;3.45;;;14.60;99.90;;;;;;5071350;28;20396;-65
2022/10/22 02:14:09;;;;;;;8.05;3.03;;;14.60;99.90;;;;;;5071490;28;20385;-65
2022/10/22 02:16:44;;;;;;;9.68;3.97;;;14.60;99.90;;;;;;5071014;28;20033;-65
2022/10/22 02:19:23;;;;;;;9.82;4.03;;;14.60;99.90;;;;;;5070831;28;20025;-65
2022/10/22 02:21:49;;;;;;;6.50;3.15;;;14.60;99.90;;;;;;5071014;28;20033;-66
2022/10/22 02:24:16;;;;;;;5.78;3.13;;;14.60;99.90;;;;;;5071314;28;20032;-66
2022/10/22 02:26:52;;;;;;;9.80;3.45;;;14.60;99.90;;;;;;5071004;28;20032;-66
2022/10/22 02:29:31;;;;;;;7.95;3.63;;;14.60;99.90;;;;;;5071034;28;20033;-65
2022/10/22 02:32:00;;;;;;;9.10;3.47;;;14.70;99.90;;;;;;5070838;28;20056;-65
2022/10/22 02:34:30;;;;;;;9.60;3.75;;;14.70;99.90;;;;;;5070909;28;20400;-65
2022/10/22 02:36:59;;;;;;;9.40;3.97;;;14.70;99.90;;;;;;5070941;28;20032;-65
2022/10/22 02:39:26;;;;;;;;;;;14.70;99.90;;;;;;5071208;28;20032;-66
2022/10/22 02:41:54;;;;;;;6.55;3.30;;;14.70;99.90;;;;;;5070957;28;19908;-65
2022/10/22 02:44:21;;;;;;;9.88;3.30;;;14.70;99.90;;;;;;5071065;28;20060;-65
2022/10/22 02:46:48;;;;;;;9.25;3.60;;;14.70;99.90;;;;;;5070965;28;20605;-65
2022/10/22 02:49:14;;;;;;;11.43;4.00;;;14.70;99.90;;;;;;5070803;28;20032;-65
2022/10/22 02:51:40;;;;;;;9.68;4.13;;;14.70;99.90;;;;;;5070654;28;20028;-66
2022/10/22 02:54:06;;;;;;;9.00;3.80;;;14.70;99.90;;;;;;5070721;28;20029;-65
2022/10/22 02:56:32;;;;;;;9.85;4.18;;;14.60;99.90;;;;;;5070735;28;20032;-66
2022/10/22 02:58:58;;;;;;;10.98;3.50;;;14.70;99.90;;;;;;5070452;28;20029;-65
2022/10/22 03:01:24;;;;;;;9.73;3.80;;;14.70;99.90;;;;;;5070482;28;20465;-65
2022/10/22 03:03:50;;;;;;;9.02;3.75;;;14.70;99.90;;;;;;5070765;28;20077;-65
2022/10/22 03:06:16;;;;;;;8.85;4.05;;;14.70;99.90;;;;;;5070686;28;20355;-65
2022/10/22 03:08:42;;;;;;;11.68;3.83;;;14.70;99.90;;;;;;5070453;28;20052;-65
2022/10/22 03:11:08;;;;;;;11.88;3.72;;;14.70;99.90;;;;;;5070595;28;20480;-66
2022/10/22 03:13:34;;;;;;;9.80;4.13;;;14.70;99.90;;;;;;5070506;28;20500;-66
2022/10/22 03:16:01;;;;;;;8.32;3.50;;;14.70;99.90;;;;;;5070531;28;20029;-65
2022/10/22 03:18:27;;;;;;;10.25;4.07;;;14.70;99.90;;;;;;5071050;28;20124;-65
2022/10/22 03:21:16;;;;;;;11.00;3.97;;;14.70;99.90;;;;;;5073990;28;20086;-65
2022/10/22 03:23:42;;;;;;;8.13;3.88;;;14.70;99.90;;;;;;5074145;28;20138;-65
2022/10/22 03:26:10;;;;;;;8.07;3.38;;;14.70;99.90;;;;;;5073980;28;20112;-65
2022/10/22 03:28:38;;;;;;;7.53;3.72;;;14.60;99.90;;;;;;5073999;28;20107;-66
2022/10/22 03:31:04;;;;;;;9.95;4.20;;;14.60;99.90;;;;;;5074169;28;20036;-65
2022/10/22 03:33:29;;;;;;;9.65;4.70;;;14.70;99.90;;;;;;5073898;28;20503;-66
2022/10/22 03:35:56;;;;;;;10.32;4.43;;;14.70;99.90;;;;;;5073884;28;20299;-65
2022/10/22 03:38:22;;;;;;;11.35;4.30;;;14.70;99.90;;;;;;5074004;28;20081;-65
2022/10/22 03:40:48;;;;;;;11.75;4.22;;;14.60;99.90;;;;;;5073890;28;20032;-66
2022/10/22 03:43:15;;;;;;;9.07;3.83;;;14.60;99.90;;;;;;5074113;28;20029;-65
2022/10/22 03:45:41;;;;;;;10.30;3.92;;;14.60;99.90;;;;;;5073722;28;20112;-65
2022/10/22 03:48:07;;;;;;;10.32;4.43;;;14.60;99.90;;;;;;5073674;28;20573;-65
2022/10/22 03:50:33;;;;;;;10.45;4.10;;;14.50;99.90;;;;;;5073807;28;20295;-65
2022/10/22 03:52:59;;;;;;;11.02;4.10;;;14.50;99.90;;;;;;5073404;28;20063;-67
2022/10/22 03:55:25;;;;;;;9.80;4.35;;;14.50;99.90;;;;;;5073564;28;20040;-67
2022/10/22 03:57:51;;;;;;;9.80;3.90;;;14.50;99.90;;;;;;5073740;28;20427;-67
2022/10/22 04:00:17;;;;;;;8.27;3.92;;;14.50;99.90;;;;;;5073485;28;20048;-67
2022/10/22 04:02:43;;;;;;;9.02;4.13;;;14.50;99.90;;;;;;5072151;28;20047;-67
2022/10/22 04:05:09;;;;;;;8.50;4.25;;;14.50;99.90;;;;;;5073646;28;20473;-67
2022/10/22 04:07:35;;;;;;;10.82;4.28;;;14.50;99.90;;;;;;5073362;28;20052;-67
2022/10/22 04:10:01;;;;;;;7.38;4.03;;;14.50;99.90;;;;;;5073167;28;20090;-66
2022/10/22 04:12:27;;;;;;;12.25;4.18;;;14.50;99.90;;;;;;5073237;28;20055;-67
2022/10/22 04:14:53;;;;;;;7.80;4.10;;;14.50;99.90;;;;;;5073263;28;20060;-67
2022/10/22 04:17:19;;;;;;;5.15;3.45;;;14.50;99.90;;;;;;5073696;28;20055;-67
2022/10/22 04:19:45;;;;;;;11.18;4.53;;;14.50;99.90;;;;;;5072969;28;20078;-66
2022/10/22 04:22:10;;;;;;;8.18;4.07;;;14.50;99.90;;;;;;5073029;28;20036;-67
2022/10/22 04:24:37;;;;;;;10.00;4.10;;;14.60;99.90;;;;;;5073088;28;20028;-66
2022/10/22 04:27:03;;;;;;;11.07;4.18;;;14.50;99.90;;;;;;5073052;28;20470;-66
2022/10/22 04:29:28;;;;;;;8.13;4.47;;;14.60;99.90;;;;;;5072843;28;20397;-66
2022/10/22 04:31:54;;;;;;;6.15;4.18;;;14.60;99.90;;;;;;5072210;28;20033;-66
2022/10/22 04:34:20;;;;;;;9.18;4.40;;;14.60;99.90;;;;;;5072885;28;20035;-66
2022/10/22 04:36:47;;;;;;;8.25;4.43;;;14.60;99.90;;;;;;5072861;28;20024;-67
2022/10/22 04:39:14;;;;;;;10.95;5.38;;;14.60;99.90;;;;;;5072631;28;20082;-67
2022/10/22 04:41:40;;;;;;;10.77;4.22;;;14.60;99.90;;;;;;5072658;28;20029;-66
2022/10/22 04:44:06;;;;;;;7.68;4.40;;;14.50;99.90;;;;;;5072806;28;20082;-67
2022/10/22 04:46:34;;;;;;;12.27;7.80;;;14.50;99.90;;;;;;5072889;28;20025;-67
2022/10/22 04:49:02;;;;;;;12.35;6.93;;;14.50;99.90;;;;;;5072500;28;20111;-66
2022/10/22 04:51:28;;;;;;;9.37;5.30;;;14.50;99.90;;;;;;5072683;28;20056;-67
2022/10/22 04:53:54;;;;;;;14.98;6.45;;;14.50;99.90;;;;;;5072522;28;20021;-67
2022/10/22 04:56:23;;;;;;;8.88;4.95;;;14.50;99.90;;;;;;5072410;28;20020;-67
2022/10/22 04:58:52;;;;;;;8.50;4.50;;;14.50;99.90;;;;;;5072502;28;20025;-67
2022/10/22 05:01:21;;;;;;;9.00;4.60;;;14.50;99.90;;;;;;5072365;28;20560;-67
2022/10/22 05:03:49;;;;;;;14.38;5.70;;;14.40;99.90;;;;;;5072339;28;20039;-66
2022/10/22 05:06:16;;;;;;;11.30;5.35;;;14.40;99.90;;;;;;5072210;28;20056;-67
2022/10/22 05:08:43;;;;;;;10.80;5.13;;;14.30;99.90;;;;;;5072210;28;20396;-67
2022/10/22 05:11:20;;;;;;;8.73;4.78;;;14.30;99.90;;;;;;5072216;28;20037;-67
2022/10/22 05:13:47;;;;;;;10.63;4.88;;;14.30;99.90;;;;;;5072108;28;20029;-67
2022/10/22 05:16:13;;;;;;;8.00;4.35;;;14.30;99.90;;;;;;5072146;28;20454;-67
2022/10/22 05:18:42;;;;;;;9.10;4.68;;;14.30;99.90;;;;;;5071986;28;20103;-67
2022/10/22 05:21:18;;;;;;;;;;;14.30;99.90;;;;;;5072368;28;20043;-67
2022/10/22 05:23:47;;;;;;;8.02;4.25;;;14.30;99.90;;;;;;5071966;28;19915;-66
2022/10/22 05:26:16;;;;;;;13.27;7.00;;;14.30;99.90;;;;;;5072122;28;20112;-67
2022/10/22 05:28:41;;;;;;;14.48;7.47;;;14.30;99.90;;;;;;5072194;28;20123;-67
2022/10/22 05:31:10;;;;;;;8.90;6.25;;;14.40;99.90;;;;;;5071896;28;20136;-67
2022/10/22 05:33:36;;;;;;;9.65;5.53;;;14.40;99.90;;;;;;5071822;28;20031;-66
2022/10/22 05:36:04;;;;;;;10.18;5.03;;;14.40;99.90;;;;;;5071626;28;20036;-66
2022/10/22 05:38:32;;;;;;;9.85;5.50;;;14.40;99.90;;;;;;5071931;28;20108;-67
2022/10/22 05:41:03;;;;;;;12.32;6.57;;;14.40;99.90;;;;;;5071791;28;20382;-66
2022/10/22 05:43:30;;;;;;;10.95;6.28;;;14.40;99.90;;;;;;5071587;28;20485;-66
2022/10/22 05:45:59;;;;;;;10.57;6.45;;;14.30;99.90;;;;;;5071431;28;20110;-66
2022/10/22 05:48:25;;;;;;;11.38;5.35;;;14.30;99.90;;;;;;5071848;28;20028;-66
2022/10/22 05:50:51;;;;;;;11.18;5.28;;;14.30;99.90;;;;;;5071595;28;20499;-66
2022/10/22 05:53:18;;;;;;;9.73;5.38;;;14.30;99.90;;;;;;5071454;28;20611;-66
2022/10/22 05:55:44;;;;;;;12.13;6.03;;;14.40;99.90;;;;;;5071440;28;20469;-66
2022/10/22 05:58:12;;;;;;;9.45;5.00;;;14.30;99.90;;;;;;5071463;28;20024;-67
2022/10/22 06:00:38;;;;;;;12.43;5.43;;;14.30;99.90;;;;;;5071196;28;20036;-67
2022/10/22 06:03:04;;;;;;;11.30;4.95;;;14.30;99.90;;;;;;5071301;28;20025;-67
2022/10/22 06:05:35;;;;;;;11.32;5.57;;;14.30;99.90;;;;;;5071478;28;20206;-67
2022/10/22 06:08:01;;;;;;;9.52;5.50;;;14.30;99.90;;;;;;5070172;28;20052;-66
2022/10/22 06:10:27;;;;;;;8.32;5.00;;;14.30;99.90;;;;;;5071043;28;20420;-67
2022/10/22 06:12:53;;;;;;;14.15;5.40;;;14.30;99.90;;;;;;5069871;28;20370;-66
2022/10/22 06:15:19;;;;;;;9.27;5.00;;;14.30;99.90;;;;;;5071391;28;20062;-67
2022/10/22 06:17:46;;;;;;;9.48;5.07;;;14.30;99.90;;;;;;5071184;28;20033;-67
2022/10/22 06:20:13;;;;;;;14.95;5.90;;;14.30;99.90;;;;;;5070804;28;20500;-66
2022/10/22 06:22:39;;;;;;;11.35;5.30;;;14.30;99.90;;;;;;5071123;28;20024;-67
2022/10/22 06:25:07;;;;;;;10.55;5.47;;;14.40;99.90;;;;;;5069862;28;20068;-67
2022/10/22 06:27:33;;;;;;;11.00;6.50;;;14.30;99.90;;;;;;5070878;28;20048;-67
2022/10/22 06:30:00;;;;;;;10.15;5.50;;;14.40;99.90;;;;;;5070991;28;20058;-67
2022/10/22 06:32:26;;;;;;;11.38;5.45;;;14.40;99.90;;;;;;5071353;28;20619;-67
2022/10/22 06:34:51;;;;;;;10.38;5.95;;;14.40;99.90;;;;;;5072509;28;20036;-66
2022/10/22 06:37:17;;;;;;;11.30;5.75;;;14.40;99.90;;;;;;5070788;28;20500;-66
2022/10/22 06:39:43;;;;;;;12.35;5.72;;;14.40;99.90;;;;;;5070862;28;20473;-67
2022/10/22 06:42:09;;;;;;;10.98;5.57;;;14.40;99.90;;;;;;5070885;28;20036;-67
2022/10/22 06:44:35;;;;;;;10.38;5.90;;;14.40;99.90;;;;;;5069785;28;20033;-67
2022/10/22 06:47:01;;;;;;;9.85;5.50;;;14.50;99.90;;;;;;5069804;28;20225;-67
2022/10/22 06:49:28;;;;;;;11.43;5.35;;;14.50;99.90;;;;;;5070947;28;20062;-66
2022/10/22 06:51:56;;;;;;;11.10;5.28;;;14.50;99.90;;;;;;5053913;28;20039;-67
2022/10/22 06:54:25;;;;;;;9.35;5.53;;;14.50;99.90;;;;;;5071963;28;20033;-66
2022/10/22 06:56:51;;;;;;;11.27;5.18;;;14.50;99.90;;;;;;5074913;28;20032;-67
2022/10/22 06:59:17;;;;;;;9.45;5.15;;;14.60;99.90;;;;;;5074900;28;20029;-67
2022/10/22 07:01:43;;;;;;;12.27;5.07;;;14.60;99.90;;;;;;5074870;28;20016;-66
2022/10/22 07:04:10;;;;;;;10.55;4.93;;;14.60;99.90;;;;;;5074861;28;20024;-67
2022/10/22 07:06:36;;;;;;;8.30;4.13;;;14.70;99.90;;;;;;5074601;28;20082;-67
2022/10/22 07:09:02;;;;;;;8.98;5.57;;;14.70;99.90;;;;;;5074497;28;20485;-66
2022/10/22 07:11:35;;;;;;;12.38;4.95;;;14.70;99.90;;;;;;5074370;28;20093;-66
2022/10/22 07:14:01;;;;;;;11.20;5.85;;;14.70;99.90;;;;;;5074709;28;20089;-67
2022/10/22 07:16:27;;;;;;;14.80;5.43;;;14.80;99.90;;;;;;5074265;28;20024;-67
2022/10/22 07:18:53;;;;;;;9.98;4.88;;;14.80;99.90;;;;;;5074435;28;20048;-67
2022/10/22 07:21:20;;;;;;;10.35;4.93;;;14.90;99.90;;;;;;5073211;28;20055;-67
2022/10/22 07:23:47;;;;;;;12.30;5.00;;;14.90;99.90;;;;;;5074314;28;20032;-67
2022/10/22 07:26:16;;;;;;;8.20;4.57;;;14.90;99.90;;;;;;5074185;28;20166;-66
2022/10/22 07:28:42;;;;;;;11.60;4.95;;;15.00;99.90;;;;;;5074020;28;20081;-67
2022/10/22 07:31:10;;;;;;;8.52;4.78;;;14.90;99.90;;;;;;5074329;28;20108;-67
2022/10/22 07:33:37;;;;;;;13.32;4.95;;;15.00;99.90;;;;;;5074047;28;20029;-67
2022/10/22 07:36:06;;;;;;;8.07;3.92;;;15.00;99.90;;;;;;5074012;28;20029;-66
2022/10/22 07:38:33;;;;;;;11.80;4.65;;;15.00;99.90;;;;;;5073727;28;20028;-67
2022/10/22 07:40:59;;;;;;;9.63;4.25;;;15.00;99.90;;;;;;5073882;28;20059;-67
2022/10/22 07:43:26;;;;;;;10.95;4.30;;;15.00;99.90;;;;;;5073773;28;20020;-67
2022/10/22 07:45:54;;;;;;;8.95;3.72;;;15.00;99.90;;;;;;5073952;28;20448;-67
2022/10/22 07:48:21;;;;;;;8.60;4.22;;;15.00;99.90;;;;;;5073674;28;20124;-66
2022/10/22 07:50:49;;;;;;;10.32;4.68;;;15.10;99.90;;;;;;5073528;28;20404;-66
2022/10/22 07:53:16;;;;;;;8.93;3.80;;;15.10;99.90;;;;;;5073520;28;20043;-66
2022/10/22 07:55:42;;;;;;;8.82;3.97;;;15.10;99.90;;;;;;5073515;28;20082;-67
2022/10/22 07:58:08;;;;;;;6.75;3.30;;;15.20;99.90;;;;;;5073538;28;20028;-67
2022/10/22 08:00:34;;;;;;;11.45;4.05;;;15.20;99.90;;;;;;5073502;28;20029;-67
2022/10/22 08:03:00;;;;;;;8.45;3.83;;;15.20;99.90;;;;;;5072149;28;20058;-67
2022/10/22 08:05:25;;;;;;;13.77;3.50;;;15.20;99.90;;;;;;5072404;28;20025;-66
2022/10/22 08:07:51;;;;;;;7.07;3.40;;;15.20;99.90;;;;;;5073302;28;20047;-66
2022/10/22 08:10:17;;;;;;;8.05;3.20;;;15.20;99.90;;;;;;5073056;28;20500;-67
2022/10/22 08:12:43;;;;;;;8.65;2.92;;;15.30;99.90;;;;;;5073468;28;20031;-66
2022/10/22 08:15:10;;;;;;;9.20;3.38;;;15.30;99.90;;;;;;5073218;28;20028;-66
2022/10/22 08:17:36;;;;;;;6.85;3.50;;;15.30;99.90;;;;;;5073130;28;20081;-67
2022/10/22 08:20:02;;;;;;;10.45;2.90;;;15.30;99.90;;;;;;5073054;28;20484;-67
2022/10/22 08:22:28;;;;;;;12.27;4.07;;;15.40;99.90;;;;;;5073226;28;20276;-67
2022/10/22 08:24:54;;;;;;;10.80;3.78;;;15.40;99.90;;;;;;5073286;28;20113;-67
2022/10/22 08:27:20;;;;;;;9.27;3.30;;;15.40;99.90;;;;;;5072936;28;20052;-67
2022/10/22 08:29:46;;;;;;;6.78;3.13;;;15.50;99.90;;;;;;5072621;28;20048;-67
2022/10/22 08:32:12;;;;;;;11.07;3.40;;;15.40;99.90;;;;;;5072770;28;20491;-67
2022/10/22 08:34:38;;;;;;;9.05;2.45;;;15.40;99.90;;;;;;5072687;28;20033;-67
2022/10/22 08:37:07;;;;;;;5.35;2.60;;;15.50;99.90;;;;;;5072752;28;20081;-67
2022/10/22 08:39:33;;;;;;;12.80;2.80;;;15.50;99.90;;;;;;5072693;28;20028;-67
2022/10/22 08:41:59;;;;;;;6.57;2.30;;;15.50;99.90;;;;;;5071464;28;20121;-67
2022/10/22 08:44:25;;;;;;;14.57;2.97;;;15.50;99.90;;;;;;5072725;28;20501;-67
2022/10/22 08:47:25;;;;;;;8.23;2.60;;;15.50;99.90;;;;;;5071551;28;20042;-67
2022/10/22 08:49:53;;;;;;;8.88;2.95;;;15.50;99.90;;;;;;5072452;28;20393;-67
2022/10/22 08:52:19;;;;;;;11.93;2.80;;;15.50;99.90;;;;;;5071178;28;20039;-68
2022/10/22 08:54:56;;;;;;;10.50;2.80;;;15.50;99.90;;;;;;5072808;28;20032;-66
2022/10/22 08:57:45;;;;;;;6.20;3.13;;;15.50;99.90;;;;;;5071177;28;20505;-67
2022/10/22 09:00:16;;;;;;;10.68;4.13;;;15.60;99.90;;;;;;5072010;28;20024;-66
2022/10/22 09:03:14;;;;;;;11.93;3.63;;;15.60;99.90;;;;;;5072171;28;20021;-67
2022/10/22 09:06:00;;;;;;;14.48;4.78;;;15.60;99.90;;;;;;5070799;28;20481;-67
2022/10/22 09:08:26;;;;;;;10.07;3.70;;;15.60;99.90;;;;;;5072190;28;20104;-67
2022/10/22 09:11:26;;;;;;;11.77;4.75;;;15.60;99.90;;;;;;5071828;28;20465;-66
2022/10/22 09:13:53;;;;;;;11.10;5.75;;;15.70;99.90;;;;;;5069703;28;20040;-66
2022/10/22 09:16:56;;;;;;;10.75;3.75;;;15.70;99.90;;;;;;5071392;28;20103;-67
2022/10/22 09:19:24;;;;;;;9.32;3.45;;;15.70;99.90;;;;;;5071671;28;20404;-67
2022/10/22 09:22:14;;;;;;;11.75;3.30;;;15.70;99.90;;;;;;5071666;28;20047;-67
2022/10/22 09:24:46;;;;;;;8.65;3.20;;;15.70;99.90;;;;;;5071845;28;20060;-67
2022/10/22 09:27:16;;;;;;;8.93;2.80;;;15.80;99.90;;;;;;5071906;28;20039;-66
2022/10/22 09:29:44;;;;;;;7.35;2.28;;;15.80;99.90;;;;;;5071544;28;20477;-67
2022/10/22 09:32:10;;;;;;;7.25;2.03;;;15.80;99.90;;;;;;5071665;28;20028;-67
2022/10/22 09:34:36;;;;;;;6.97;2.22;;;15.80;99.90;;;;;;5071679;28;20147;-67
2022/10/22 09:37:05;;;;;;;6.40;2.08;;;15.80;99.90;;;;;;5070370;28;20446;-67
2022/10/22 09:39:32;;;;;;;;;;;15.80;99.90;;;;;;5071851;28;20028;-67
2022/10/22 09:41:58;;;;;;;9.50;1.77;;;15.80;99.90;;;;;;5071659;28;20003;-66
2022/10/22 09:44:24;;;;;;;6.60;2.00;;;15.80;99.90;;;;;;5071497;28;20028;-67
2022/10/22 09:46:51;;;;;;;11.38;2.08;;;15.80;99.90;;;;;;5071405;28;20025;-67
2022/10/22 09:49:20;;;;;;;12.38;2.30;;;15.80;99.90;;;;;;5071396;28;20040;-67
2022/10/22 09:51:53;;;;;;;6.80;1.90;;;15.90;99.90;;;;;;5071274;28;20032;-67
2022/10/22 09:54:23;;;;;;;7.95;1.85;;;15.90;99.90;;;;;;5071385;28;20130;-66
2022/10/22 09:56:57;;;;;;;7.50;1.85;;;15.90;99.90;;;;;;5070118;28;20047;-67
2022/10/22 09:59:31;;;;;;;8.25;1.73;;;16.00;99.90;;;;;;5071095;28;20040;-67
2022/10/22 10:02:01;;;;;;;13.27;3.72;;;16.00;99.90;;;;;;5071249;28;20048;-67
2022/10/22 10:04:27;;;;;;;8.60;1.98;;;16.10;99.90;;;;;;5071649;28;20036;-67
2022/10/22 10:06:58;;;;;;;8.95;2.10;;;16.10;99.90;;;;;;5071062;28;20032;-67
2022/10/22 10:09:26;;;;;;;8.70;2.00;;;16.10;99.90;;;;;;5069854;28;20440;-67
2022/10/22 10:11:59;;;;;;;7.90;1.70;;;16.20;99.90;;;;;;5071118;28;20125;-67
2022/10/22 10:14:25;;;;;;;8.98;2.42;;;16.20;99.90;;;;;;5070955;28;20086;-67
2022/10/22 10:17:00;;;;;;;7.63;2.00;;;16.20;99.90;;;;;;5071294;28;20388;-67
2022/10/22 10:19:37;;;;;;;6.95;1.98;;;16.20;99.90;;;;;;5070747;28;20475;-67
2022/10/22 10:22:21;;;;;;;7.88;1.70;;;16.20;99.90;;;;;;5071001;28;20036;-67
2022/10/22 10:25:05;;;;;;;8.43;1.90;;;16.30;99.90;;;;;;5071111;28;20032;-67
2022/10/22 10:27:34;;;;;;;7.32;1.80;;;16.30;99.90;;;;;;5070717;28;20032;-67
2022/10/22 10:30:15;;;;;;;9.77;1.55;;;16.30;99.90;;;;;;5070383;28;20036;-67
2022/10/22 10:33:19;;;;;;;8.05;1.83;;;16.30;99.90;;;;;;5069846;28;20032;-67
2022/10/22 10:36:08;;;;;;;6.75;1.60;;;16.30;99.90;;;;;;5028165;28;20041;-66
2022/10/22 10:38:58;;;;;;;9.57;1.75;;;16.30;99.90;;;;;;5011730;28;20025;-67
2022/10/22 10:41:51;;;;;;;5.00;1.80;;;16.40;99.90;;;;;;5061903;28;20127;-67
2022/10/22 10:44:37;;;;;;;6.43;2.03;;;16.40;99.90;;;;;;5071074;28;20098;-67
2022/10/22 10:47:35;;;;;;;6.75;1.63;;;16.40;99.90;;;;;;5070875;28;20401;-67
2022/10/22 10:50:30;;;;;;;7.03;1.60;;;16.50;99.90;;;;;;5070665;28;20021;-67
2022/10/22 10:53:14;;;;;;;5.97;1.50;;;16.50;99.90;;;;;;5070864;28;20082;-67
2022/10/22 10:56:29;;;;;;;6.95;1.70;;;16.50;99.90;;;;;;5070915;28;20033;-67
2022/10/22 10:59:13;;;;;;;7.00;2.25;;;16.50;99.90;;;;;;5061736;28;20107;-67
2022/10/22 11:02:18;;;;;;;9.07;1.67;;;16.50;99.90;;;;;;5070555;28;20559;-67
2022/10/22 11:05:29;;;;;;;7.18;1.70;;;16.50;99.90;;;;;;5070555;28;20047;-67
2022/10/22 11:08:33;;;;;;;4.70;1.50;;;16.60;99.90;;;;;;5027824;28;20096;-67
2022/10/22 11:11:01;;;;;;;12.45;2.08;;;16.60;99.90;;;;;;5028067;28;20401;-67
2022/10/22 11:13:30;;;;;;;3.10;1.40;;;16.60;99.90;;;;;;5061628;28;20044;-67
2022/10/22 11:16:29;;;;;;;8.80;1.67;;;16.60;99.90;;;;;;5070623;28;20029;-68
2022/10/22 11:19:02;;;;;;;;;;;16.60;99.90;;;;;;5070951;28;20039;-67
2022/10/22 11:21:44;;;;;;;7.38;1.60;;;16.60;99.90;;;;;;5070421;28;19912;-67
2022/10/22 11:24:18;;;;;;;6.53;1.40;;;16.60;99.90;;;;;;5070543;28;20021;-66
2022/10/22 11:26:59;;;;;;;6.72;2.08;;;16.70;99.90;;;;;;5070500;28;20043;-67
2022/10/22 11:29:55;;;;;;;10.30;1.75;;;16.70;99.90;;;;;;5070380;28;20025;-67
2022/10/22 11:32:25;;;;;;;9.35;1.92;;;16.70;99.90;;;;;;5068209;28;20037;-67
2022/10/22 11:34:55;;;;;;;8.55;2.05;;;16.70;99.90;;;;;;5070531;28;20029;-67
2022/10/22 11:37:26;;;;;;;7.03;1.67;;;16.80;99.90;;;;;;5070386;28;20039;-67
2022/10/22 11:40:01;;;;;;;6.85;1.70;;;16.70;99.90;;;;;;5071244;28;20435;-67
2022/10/22 11:42:45;;;;;;;6.05;1.90;;;16.70;99.90;;;;;;5073827;28;20024;-67
2022/10/22 11:45:14;;;;;;;7.72;2.00;;;16.70;99.90;;;;;;5072703;28;20059;-67
2022/10/22 11:48:06;;;;;;;6.30;1.73;;;16.70;99.90;;;;;;5073692;28;20045;-67
2022/10/22 11:50:55;;;;;;;4.50;1.65;;;16.70;99.90;;;;;;5073436;28;20071;-67
2022/10/22 11:53:37;;;;;;;6.38;1.50;;;16.70;99.90;;;;;;5073815;28;20553;-67
2022/10/22 11:56:06;;;;;;;6.68;1.50;;;16.70;99.90;;;;;;5073726;28;20035;-67
2022/10/22 11:58:38;;;;;;;5.80;1.38;;;16.70;99.90;;;;;;5072487;28;20064;-67
2022/10/22 12:01:06;;;;;;;5.82;1.40;;;16.70;99.90;;;;;;5073355;28;20031;-67
2022/10/22 12:03:33;;;;;;;6.30;1.63;;;16.60;99.90;;;;;;5072448;28;20428;-67
2022/10/22 12:06:11;;;;;;;7.13;1.50;;;16.60;99.90;;;;;;5073360;28;20031;-67
2022/10/22 12:08:51;;;;;;;6.07;1.35;;;16.60;99.90;;;;;;5073392;28;20024;-67
2022/10/22 12:11:36;;;;;;;4.13;1.55;;;16.60;99.90;;;;;;5073249;28;20035;-67
2022/10/22 12:14:10;;;;;;;4.20;1.50;;;16.70;99.90;;;;;;5073369;28;20032;-67
2022/10/22 12:16:41;;;;;;;6.97;1.63;;;16.70;99.90;;;;;;5073223;28;20027;-67
2022/10/22 12:19:23;;;;;;;7.28;1.60;;;16.70;99.90;;;;;;5072984;28;20037;-67
2022/10/22 12:21:53;;;;;;;7.47;1.52;;;16.70;99.90;;;;;;5072826;28;20108;-67
2022/10/22 12:24:22;;;;;;;4.85;1.10;;;16.70;99.90;;;;;;5073004;28;20050;-68
2022/10/22 12:26:51;;;;;;;6.82;1.52;;;16.80;99.90;;;;;;5072719;28;20032;-67
2022/10/22 12:29:21;;;;;;;5.03;1.20;;;16.70;99.90;;;;;;5072900;28;20032;-67
2022/10/22 12:31:48;;;;;;;6.68;1.95;;;16.70;99.90;;;;;;5073053;28;20105;-67
2022/10/22 12:34:21;;;;;;;5.72;1.83;;;16.70;99.90;;;;;;5072795;28;20036;-67
2022/10/22 12:36:50;;;;;;;6.47;1.50;;;16.70;99.90;;;;;;5072990;28;20164;-67
2022/10/22 12:39:20;;;;;;;6.05;1.60;;;16.70;99.90;;;;;;5072908;28;20115;-67
2022/10/22 12:41:47;;;;;;;5.18;1.45;;;16.80;99.90;;;;;;5072877;28;20024;-67
2022/10/22 12:44:16;;;;;;;5.25;1.13;;;16.80;99.90;;;;;;5072794;28;20111;-67
2022/10/22 12:46:44;;;;;;;8.15;1.58;;;16.80;99.90;;;;;;5072690;28;20058;-68
2022/10/22 12:49:16;;;;;;;9.82;2.13;;;16.80;99.90;;;;;;5072941;28;20063;-67
2022/10/22 12:51:42;;;;;;;3.88;1.48;;;16.80;99.90;;;;;;5071806;28;20033;-67
2022/10/22 12:54:21;;;;;;;4.90;1.25;;;16.80;99.90;;;;;;5072512;28;20033;-68
2022/10/22 12:56:47;;;;;;;5.63;1.63;;;16.80;99.90;;;;;;5072586;28;20035;-67
2022/10/22 12:59:18;;;;;;;8.23;1.70;;;16.80;99.90;;;;;;5072314;28;20255;-67
2022/10/22 13:01:44;;;;;;;5.93;1.98;;;16.80;99.90;;;;;;5072373;28;20025;-67
2022/10/22 13:04:25;;;;;;;6.72;1.75;;;16.90;99.90;;;;;;5072450;28;20568;-67
2022/10/22 13:07:14;;;;;;;5.38;1.45;;;16.90;99.90;;;;;;5072247;28;20028;-67